sensor_id;sensor_type;location;lat;lon;timestamp;P1;durP1;ratioP1;P2;durP2;ratioP2
34697;SDS011;61391;50.922;6.928;2023-06-22T00:02:15;2.03;;;1.83;;
34697;SDS011;61391;50.922;6.928;2023-06-22T00:04:41;2.20;;;2.00;;
34697;SDS011;61391;50.922;6.928;2023-06-22T00:07:07;1.85;;;1.65;;
34697;SDS011;61391;50.922;6.928;2023-06-22T00:09:42;1.83;;;1.70;;
34697;SDS011;61391;50.922;6.928;2023-06-22T00:12:08;2.17;;;1.92;;
34697;SDS011;61391;50.922;6.928;2023-06-22T00:14:33;2.72;;;1.80;;
34697;SDS011;61391;50.922;6.928;2023-06-22T00:16:59;3.45;;;2.20;;
34697;SDS011;61391;50.922;6.928;2023-06-22T00:19:24;2.13;;;1.92;;
34697;SDS011;61391;50.922;6.928;2023-06-22T00:21:50;1.70;;;1.60;;
34697;SDS011;61391;50.922;6.928;2023-06-22T00:24:22;2.22;;;1.95;;
34697;SDS011;61391;50.922;6.928;2023-06-22T00:26:49;2.92;;;1.95;;
34697;SDS011;61391;50.922;6.928;2023-06-22T00:29:14;2.38;;;1.80;;
34697;SDS011;61391;50.922;6.928;2023-06-22T00:31:40;2.15;;;1.65;;
34697;SDS011;61391;50.922;6.928;2023-06-22T00:34:06;1.98;;;1.70;;
34697;SDS011;61391;50.922;6.928;2023-06-22T00:36:33;1.95;;;1.60;;
34697;SDS011;61391;50.922;6.928;2023-06-22T00:38:59;2.05;;;1.85;;
34697;SDS011;61391;50.922;6.928;2023-06-22T00:41:25;2.25;;;1.70;;
34697;SDS011;61391;50.922;6.928;2023-06-22T00:43:53;1.65;;;1.55;;
34697;SDS011;61391;50.922;6.928;2023-06-22T00:46:19;2.58;;;1.85;;
34697;SDS011;61391;50.922;6.928;2023-06-22T00:48:46;2.08;;;1.92;;
34697;SDS011;61391;50.922;6.928;2023-06-22T00:51:11;2.33;;;2.00;;
34697;SDS011;61391;50.922;6.928;2023-06-22T00:53:37;2.72;;;2.20;;
34697;SDS011;61391;50.922;6.928;2023-06-22T00:56:03;2.90;;;2.28;;
34697;SDS011;61391;50.922;6.928;2023-06-22T00:58:30;1.98;;;1.88;;
34697;SDS011;61391;50.922;6.928;2023-06-22T01:00:56;2.17;;;1.98;;
34697;SDS011;61391;50.922;6.928;2023-06-22T01:03:22;2.10;;;1.90;;
34697;SDS011;61391;50.922;6.928;2023-06-22T01:05:47;2.35;;;2.00;;
34697;SDS011;61391;50.922;6.928;2023-06-22T01:11:31;2.13;;;1.92;;
34697;SDS011;61391;50.922;6.928;2023-06-22T01:13:37;2.63;;;2.10;;
34697;SDS011;61391;50.922;6.928;2023-06-22T01:16:26;2.42;;;2.10;;
34697;SDS011;61391;50.922;6.928;2023-06-22T01:18:55;2.28;;;2.00;;
34697;SDS011;61391;50.922;6.928;2023-06-22T01:21:23;2.30;;;2.10;;
34697;SDS011;61391;50.922;6.928;2023-06-22T01:26:43;2.22;;;1.92;;
34697;SDS011;61391;50.922;6.928;2023-06-22T01:29:20;2.00;;;1.80;;
34697;SDS011;61391;50.922;6.928;2023-06-22T01:31:49;2.55;;;1.90;;
34697;SDS011;61391;50.922;6.928;2023-06-22T01:34:16;1.98;;;1.88;;
34697;SDS011;61391;50.922;6.928;2023-06-22T01:36:42;2.22;;;1.90;;
34697;SDS011;61391;50.922;6.928;2023-06-22T01:39:09;2.22;;;2.00;;
34697;SDS011;61391;50.922;6.928;2023-06-22T01:41:36;2.05;;;1.85;;
34697;SDS011;61391;50.922;6.928;2023-06-22T01:44:03;2.35;;;2.10;;
34697;SDS011;61391;50.922;6.928;2023-06-22T01:46:32;2.72;;;2.10;;
34697;SDS011;61391;50.922;6.928;2023-06-22T01:48:59;2.60;;;2.40;;
34697;SDS011;61391;50.922;6.928;2023-06-22T01:51:26;2.13;;;1.92;;
34697;SDS011;61391;50.922;6.928;2023-06-22T01:53:51;4.05;;;2.10;;
34697;SDS011;61391;50.922;6.928;2023-06-22T01:56:17;2.63;;;1.67;;
34697;SDS011;61391;50.922;6.928;2023-06-22T02:01:37;2.42;;;2.22;;
34697;SDS011;61391;50.922;6.928;2023-06-22T02:04:12;1.65;;;1.55;;
34697;SDS011;61391;50.922;6.928;2023-06-22T02:06:43;2.30;;;1.98;;
34697;SDS011;61391;50.922;6.928;2023-06-22T02:09:15;1.85;;;1.75;;
34697;SDS011;61391;50.922;6.928;2023-06-22T02:11:43;1.70;;;1.60;;
34697;SDS011;61391;50.922;6.928;2023-06-22T02:14:10;2.80;;;2.00;;
34697;SDS011;61391;50.922;6.928;2023-06-22T02:16:38;1.90;;;1.70;;
34697;SDS011;61391;50.922;6.928;2023-06-22T02:19:03;2.58;;;2.38;;
34697;SDS011;61391;50.922;6.928;2023-06-22T02:21:31;2.20;;;1.95;;
34697;SDS011;61391;50.922;6.928;2023-06-22T02:23:57;2.72;;;1.73;;
34697;SDS011;61391;50.922;6.928;2023-06-22T02:26:23;3.63;;;1.95;;
34697;SDS011;61391;50.922;6.928;2023-06-22T02:28:50;1.80;;;1.67;;
34697;SDS011;61391;50.922;6.928;2023-06-22T02:31:16;2.00;;;1.80;;
34697;SDS011;61391;50.922;6.928;2023-06-22T02:33:42;2.38;;;2.05;;
34697;SDS011;61391;50.922;6.928;2023-06-22T02:36:08;2.33;;;1.80;;
34697;SDS011;61391;50.922;6.928;2023-06-22T02:38:34;2.35;;;1.75;;
34697;SDS011;61391;50.922;6.928;2023-06-22T02:41:01;1.90;;;1.58;;
34697;SDS011;61391;50.922;6.928;2023-06-22T02:43:27;3.58;;;1.67;;
34697;SDS011;61391;50.922;6.928;2023-06-22T02:45:53;2.10;;;1.90;;
34697;SDS011;61391;50.922;6.928;2023-06-22T02:48:19;2.13;;;1.63;;
34697;SDS011;61391;50.922;6.928;2023-06-22T02:50:44;2.35;;;1.80;;
34697;SDS011;61391;50.922;6.928;2023-06-22T02:53:10;2.58;;;1.98;;
34697;SDS011;61391;50.922;6.928;2023-06-22T02:55:35;2.63;;;1.77;;
34697;SDS011;61391;50.922;6.928;2023-06-22T02:58:01;1.85;;;1.75;;
34697;SDS011;61391;50.922;6.928;2023-06-22T03:00:30;1.50;;;1.40;;
34697;SDS011;61391;50.922;6.928;2023-06-22T03:02:56;1.90;;;1.70;;
34697;SDS011;61391;50.922;6.928;2023-06-22T03:05:22;2.03;;;1.83;;
34697;SDS011;61391;50.922;6.928;2023-06-22T03:07:48;2.00;;;1.80;;
34697;SDS011;61391;50.922;6.928;2023-06-22T03:10:14;2.50;;;2.15;;
34697;SDS011;61391;50.922;6.928;2023-06-22T03:12:41;1.88;;;1.77;;
34697;SDS011;61391;50.922;6.928;2023-06-22T03:15:08;2.67;;;1.90;;
34697;SDS011;61391;50.922;6.928;2023-06-22T03:17:36;2.00;;;1.83;;
34697;SDS011;61391;50.922;6.928;2023-06-22T03:20:03;1.95;;;1.70;;
34697;SDS011;61391;50.922;6.928;2023-06-22T03:22:39;1.65;;;1.55;;
34697;SDS011;61391;50.922;6.928;2023-06-22T03:25:06;2.00;;;1.80;;
34697;SDS011;61391;50.922;6.928;2023-06-22T03:27:36;3.85;;;2.03;;
34697;SDS011;61391;50.922;6.928;2023-06-22T03:30:01;2.53;;;1.67;;
34697;SDS011;61391;50.922;6.928;2023-06-22T03:32:27;1.70;;;1.50;;
34697;SDS011;61391;50.922;6.928;2023-06-22T03:34:53;1.90;;;1.70;;
34697;SDS011;61391;50.922;6.928;2023-06-22T03:37:19;2.30;;;1.83;;
34697;SDS011;61391;50.922;6.928;2023-06-22T03:39:44;1.98;;;1.70;;
34697;SDS011;61391;50.922;6.928;2023-06-22T03:42:10;1.75;;;1.65;;
34697;SDS011;61391;50.922;6.928;2023-06-22T03:44:36;2.28;;;1.73;;
34697;SDS011;61391;50.922;6.928;2023-06-22T03:50:23;1.63;;;1.52;;
34697;SDS011;61391;50.922;6.928;2023-06-22T03:52:49;2.00;;;1.80;;
34697;SDS011;61391;50.922;6.928;2023-06-22T03:55:16;4.10;;;1.85;;
34697;SDS011;61391;50.922;6.928;2023-06-22T03:57:42;1.98;;;1.67;;
34697;SDS011;61391;50.922;6.928;2023-06-22T04:00:08;2.42;;;2.22;;
34697;SDS011;61391;50.922;6.928;2023-06-22T04:02:35;2.50;;;2.10;;
34697;SDS011;61391;50.922;6.928;2023-06-22T04:05:00;2.40;;;2.20;;
34697;SDS011;61391;50.922;6.928;2023-06-22T04:07:26;2.40;;;2.20;;
34697;SDS011;61391;50.922;6.928;2023-06-22T04:09:51;2.58;;;2.20;;
34697;SDS011;61391;50.922;6.928;2023-06-22T04:12:17;2.50;;;2.30;;
34697;SDS011;61391;50.922;6.928;2023-06-22T04:18:04;2.33;;;2.13;;
34697;SDS011;61391;50.922;6.928;2023-06-22T04:20:31;3.53;;;3.10;;
34697;SDS011;61391;50.922;6.928;2023-06-22T04:26:18;2.97;;;2.73;;
34697;SDS011;61391;50.922;6.928;2023-06-22T04:28:45;3.25;;;2.95;;
34697;SDS011;61391;50.922;6.928;2023-06-22T04:34:02;2.83;;;2.60;;
34697;SDS011;61391;50.922;6.928;2023-06-22T04:36:35;3.35;;;3.05;;
34697;SDS011;61391;50.922;6.928;2023-06-22T04:39:06;3.87;;;3.20;;
34697;SDS011;61391;50.922;6.928;2023-06-22T04:44:16;3.05;;;2.75;;
34697;SDS011;61391;50.922;6.928;2023-06-22T04:49:40;3.70;;;3.30;;
34697;SDS011;61391;50.922;6.928;2023-06-22T04:52:09;4.38;;;3.60;;
34697;SDS011;61391;50.922;6.928;2023-06-22T04:54:36;3.50;;;3.20;;
34697;SDS011;61391;50.922;6.928;2023-06-22T04:57:03;3.50;;;3.20;;
34697;SDS011;61391;50.922;6.928;2023-06-22T05:05:23;3.80;;;3.15;;
34697;SDS011;61391;50.922;6.928;2023-06-22T05:07:50;3.55;;;3.17;;
34697;SDS011;61391;50.922;6.928;2023-06-22T05:10:18;3.78;;;3.10;;
34697;SDS011;61391;50.922;6.928;2023-06-22T05:12:44;3.47;;;3.17;;
34697;SDS011;61391;50.922;6.928;2023-06-22T05:15:11;3.75;;;3.35;;
34697;SDS011;61391;50.922;6.928;2023-06-22T05:17:37;3.47;;;3.10;;
34697;SDS011;61391;50.922;6.928;2023-06-22T05:20:08;4.00;;;3.60;;
34697;SDS011;61391;50.922;6.928;2023-06-22T05:22:35;3.67;;;3.38;;
34697;SDS011;61391;50.922;6.928;2023-06-22T05:25:01;3.67;;;3.28;;
34697;SDS011;61391;50.922;6.928;2023-06-22T05:27:26;4.55;;;4.10;;
34697;SDS011;61391;50.922;6.928;2023-06-22T05:29:52;3.35;;;3.05;;
34697;SDS011;61391;50.922;6.928;2023-06-22T05:32:18;3.58;;;3.20;;
34697;SDS011;61391;50.922;6.928;2023-06-22T05:34:44;3.72;;;3.30;;
34697;SDS011;61391;50.922;6.928;2023-06-22T05:37:11;3.55;;;3.22;;
34697;SDS011;61391;50.922;6.928;2023-06-22T05:39:37;3.85;;;3.55;;
34697;SDS011;61391;50.922;6.928;2023-06-22T05:42:07;3.88;;;3.50;;
34697;SDS011;61391;50.922;6.928;2023-06-22T05:44:33;3.35;;;3.05;;
34697;SDS011;61391;50.922;6.928;2023-06-22T05:46:59;4.68;;;3.70;;
34697;SDS011;61391;50.922;6.928;2023-06-22T05:49:24;5.07;;;3.67;;
34697;SDS011;61391;50.922;6.928;2023-06-22T05:51:54;3.90;;;3.50;;
34697;SDS011;61391;50.922;6.928;2023-06-22T05:54:20;4.05;;;3.50;;
34697;SDS011;61391;50.922;6.928;2023-06-22T05:56:46;4.13;;;3.50;;
34697;SDS011;61391;50.922;6.928;2023-06-22T05:59:11;3.65;;;3.35;;
34697;SDS011;61391;50.922;6.928;2023-06-22T06:01:37;4.75;;;3.60;;
34697;SDS011;61391;50.922;6.928;2023-06-22T06:04:04;3.58;;;3.22;;
34697;SDS011;61391;50.922;6.928;2023-06-22T06:06:33;3.78;;;3.42;;
34697;SDS011;61391;50.922;6.928;2023-06-22T06:09:03;3.83;;;3.40;;
34697;SDS011;61391;50.922;6.928;2023-06-22T06:11:29;4.10;;;3.45;;
34697;SDS011;61391;50.922;6.928;2023-06-22T06:13:55;5.75;;;4.15;;
34697;SDS011;61391;50.922;6.928;2023-06-22T06:16:22;4.68;;;3.67;;
34697;SDS011;61391;50.922;6.928;2023-06-22T06:18:48;4.32;;;3.75;;
34697;SDS011;61391;50.922;6.928;2023-06-22T06:21:15;5.18;;;3.80;;
34697;SDS011;61391;50.922;6.928;2023-06-22T06:23:41;3.88;;;3.47;;
34697;SDS011;61391;50.922;6.928;2023-06-22T06:26:07;3.38;;;3.08;;
34697;SDS011;61391;50.922;6.928;2023-06-22T06:28:33;3.92;;;3.53;;
34697;SDS011;61391;50.922;6.928;2023-06-22T06:30:59;4.03;;;3.67;;
34697;SDS011;61391;50.922;6.928;2023-06-22T06:33:25;3.75;;;3.40;;
34697;SDS011;61391;50.922;6.928;2023-06-22T06:35:51;4.20;;;3.80;;
34697;SDS011;61391;50.922;6.928;2023-06-22T06:38:17;3.58;;;3.28;;
34697;SDS011;61391;50.922;6.928;2023-06-22T06:40:43;3.78;;;3.35;;
34697;SDS011;61391;50.922;6.928;2023-06-22T06:43:10;4.32;;;3.92;;
34697;SDS011;61391;50.922;6.928;2023-06-22T06:45:36;4.03;;;3.63;;
34697;SDS011;61391;50.922;6.928;2023-06-22T06:48:01;5.10;;;3.92;;
34697;SDS011;61391;50.922;6.928;2023-06-22T06:50:27;4.95;;;3.42;;
34697;SDS011;61391;50.922;6.928;2023-06-22T06:52:54;3.72;;;3.38;;
34697;SDS011;61391;50.922;6.928;2023-06-22T06:55:19;3.83;;;3.53;;
34697;SDS011;61391;50.922;6.928;2023-06-22T06:57:50;4.38;;;2.97;;
34697;SDS011;61391;50.922;6.928;2023-06-22T07:00:17;3.80;;;3.25;;
34697;SDS011;61391;50.922;6.928;2023-06-22T07:02:44;2.95;;;2.65;;
34697;SDS011;61391;50.922;6.928;2023-06-22T07:05:10;3.53;;;2.78;;
34697;SDS011;61391;50.922;6.928;2023-06-22T07:07:37;3.25;;;2.80;;
34697;SDS011;61391;50.922;6.928;2023-06-22T07:10:03;3.85;;;3.00;;
34697;SDS011;61391;50.922;6.928;2023-06-22T07:12:30;3.22;;;2.88;;
34697;SDS011;61391;50.922;6.928;2023-06-22T07:15:06;3.15;;;2.85;;
34697;SDS011;61391;50.922;6.928;2023-06-22T07:17:38;4.50;;;3.55;;
34697;SDS011;61391;50.922;6.928;2023-06-22T07:20:06;3.53;;;2.92;;
34697;SDS011;61391;50.922;6.928;2023-06-22T07:22:35;3.05;;;2.78;;
34697;SDS011;61391;50.922;6.928;2023-06-22T07:25:03;4.00;;;3.25;;
34697;SDS011;61391;50.922;6.928;2023-06-22T07:27:38;2.92;;;2.47;;
34697;SDS011;61391;50.922;6.928;2023-06-22T07:30:16;3.25;;;2.70;;
34697;SDS011;61391;50.922;6.928;2023-06-22T07:32:44;5.78;;;3.38;;
34697;SDS011;61391;50.922;6.928;2023-06-22T07:35:13;3.38;;;3.00;;
34697;SDS011;61391;50.922;6.928;2023-06-22T07:37:44;3.28;;;2.97;;
34697;SDS011;61391;50.922;6.928;2023-06-22T07:40:10;4.63;;;2.90;;
34697;SDS011;61391;50.922;6.928;2023-06-22T07:42:42;3.33;;;2.78;;
34697;SDS011;61391;50.922;6.928;2023-06-22T07:45:16;3.65;;;3.08;;
34697;SDS011;61391;50.922;6.928;2023-06-22T07:47:43;3.95;;;2.90;;
34697;SDS011;61391;50.922;6.928;2023-06-22T07:50:09;4.13;;;3.13;;
34697;SDS011;61391;50.922;6.928;2023-06-22T07:52:41;4.13;;;3.15;;
34697;SDS011;61391;50.922;6.928;2023-06-22T07:55:20;3.22;;;2.70;;
34697;SDS011;61391;50.922;6.928;2023-06-22T07:57:48;3.25;;;2.92;;
34697;SDS011;61391;50.922;6.928;2023-06-22T08:00:23;3.58;;;3.15;;
34697;SDS011;61391;50.922;6.928;2023-06-22T08:02:53;3.92;;;2.80;;
34697;SDS011;61391;50.922;6.928;2023-06-22T08:05:24;3.35;;;2.80;;
34697;SDS011;61391;50.922;6.928;2023-06-22T08:07:52;3.95;;;3.05;;
34697;SDS011;61391;50.922;6.928;2023-06-22T08:10:25;3.17;;;2.85;;
34697;SDS011;61391;50.922;6.928;2023-06-22T08:12:53;3.03;;;2.72;;
34697;SDS011;61391;50.922;6.928;2023-06-22T08:15:19;3.00;;;2.70;;
34697;SDS011;61391;50.922;6.928;2023-06-22T08:17:48;4.50;;;2.80;;
34697;SDS011;61391;50.922;6.928;2023-06-22T08:20:17;3.75;;;3.38;;
34697;SDS011;61391;50.922;6.928;2023-06-22T08:25:17;4.35;;;3.20;;
34697;SDS011;61391;50.922;6.928;2023-06-22T08:30:33;2.95;;;2.75;;
34697;SDS011;61391;50.922;6.928;2023-06-22T08:33:01;2.85;;;2.65;;
34697;SDS011;61391;50.922;6.928;2023-06-22T08:35:28;3.25;;;2.92;;
34697;SDS011;61391;50.922;6.928;2023-06-22T08:37:55;3.05;;;2.67;;
34697;SDS011;61391;50.922;6.928;2023-06-22T08:40:45;4.03;;;3.17;;
34697;SDS011;61391;50.922;6.928;2023-06-22T08:43:12;3.55;;;2.70;;
34697;SDS011;61391;50.922;6.928;2023-06-22T08:48:23;3.00;;;2.45;;
34697;SDS011;61391;50.922;6.928;2023-06-22T08:50:54;2.83;;;2.60;;
34697;SDS011;61391;50.922;6.928;2023-06-22T08:53:24;3.30;;;3.00;;
34697;SDS011;61391;50.922;6.928;2023-06-22T08:56:12;3.72;;;2.47;;
34697;SDS011;61391;50.922;6.928;2023-06-22T08:58:38;3.08;;;2.63;;
34697;SDS011;61391;50.922;6.928;2023-06-22T09:01:06;3.35;;;3.05;;
34697;SDS011;61391;50.922;6.928;2023-06-22T09:03:32;2.47;;;2.28;;
34697;SDS011;61391;50.922;6.928;2023-06-22T09:06:02;2.80;;;2.60;;
34697;SDS011;61391;50.922;6.928;2023-06-22T09:11:55;3.10;;;2.80;;
34697;SDS011;61391;50.922;6.928;2023-06-22T09:14:21;3.00;;;2.67;;
34697;SDS011;61391;50.922;6.928;2023-06-22T09:16:50;3.05;;;2.75;;
34697;SDS011;61391;50.922;6.928;2023-06-22T09:19:17;2.97;;;2.60;;
34697;SDS011;61391;50.922;6.928;2023-06-22T09:21:43;3.33;;;2.78;;
34697;SDS011;61391;50.922;6.928;2023-06-22T09:24:14;3.45;;;2.65;;
34697;SDS011;61391;50.922;6.928;2023-06-22T09:29:09;2.85;;;2.55;;
34697;SDS011;61391;50.922;6.928;2023-06-22T09:31:37;3.05;;;2.70;;
34697;SDS011;61391;50.922;6.928;2023-06-22T09:34:04;2.60;;;2.40;;
34697;SDS011;61391;50.922;6.928;2023-06-22T09:36:30;2.60;;;2.40;;
34697;SDS011;61391;50.922;6.928;2023-06-22T09:38:56;2.80;;;2.50;;
34697;SDS011;61391;50.922;6.928;2023-06-22T09:41:23;2.78;;;2.58;;
34697;SDS011;61391;50.922;6.928;2023-06-22T09:43:51;3.35;;;2.65;;
34697;SDS011;61391;50.922;6.928;2023-06-22T09:46:21;2.53;;;2.33;;
34697;SDS011;61391;50.922;6.928;2023-06-22T09:48:50;3.08;;;2.40;;
34697;SDS011;61391;50.922;6.928;2023-06-22T09:51:19;3.70;;;2.47;;
34697;SDS011;61391;50.922;6.928;2023-06-22T09:53:46;2.83;;;2.45;;
34697;SDS011;61391;50.922;6.928;2023-06-22T09:56:15;3.53;;;2.63;;
34697;SDS011;61391;50.922;6.928;2023-06-22T09:58:43;3.75;;;3.45;;
34697;SDS011;61391;50.922;6.928;2023-06-22T10:01:12;3.10;;;2.80;;
34697;SDS011;61391;50.922;6.928;2023-06-22T10:03:39;2.67;;;2.47;;
34697;SDS011;61391;50.922;6.928;2023-06-22T10:06:06;3.10;;;2.80;;
34697;SDS011;61391;50.922;6.928;2023-06-22T10:08:35;3.40;;;3.10;;
34697;SDS011;61391;50.922;6.928;2023-06-22T10:11:01;3.63;;;3.20;;
34697;SDS011;61391;50.922;6.928;2023-06-22T10:13:27;3.28;;;2.97;;
34697;SDS011;61391;50.922;6.928;2023-06-22T10:15:56;3.85;;;3.45;;
34697;SDS011;61391;50.922;6.928;2023-06-22T10:18:30;3.58;;;2.92;;
34697;SDS011;61391;50.922;6.928;2023-06-22T10:20:56;4.43;;;2.75;;
34697;SDS011;61391;50.922;6.928;2023-06-22T10:23:25;3.40;;;3.10;;
34697;SDS011;61391;50.922;6.928;2023-06-22T10:26:00;3.75;;;3.10;;
34697;SDS011;61391;50.922;6.928;2023-06-22T10:28:28;4.32;;;3.33;;
34697;SDS011;61391;50.922;6.928;2023-06-22T10:30:55;4.63;;;3.45;;
34697;SDS011;61391;50.922;6.928;2023-06-22T10:33:26;3.97;;;3.15;;
34697;SDS011;61391;50.922;6.928;2023-06-22T10:35:52;4.63;;;3.75;;
34697;SDS011;61391;50.922;6.928;2023-06-22T10:38:19;3.80;;;3.40;;
34697;SDS011;61391;50.922;6.928;2023-06-22T10:40:45;4.25;;;3.30;;
34697;SDS011;61391;50.922;6.928;2023-06-22T10:43:32;4.38;;;3.63;;
34697;SDS011;61391;50.922;6.928;2023-06-22T10:46:02;3.67;;;3.38;;
34697;SDS011;61391;50.922;6.928;2023-06-22T10:48:28;4.95;;;4.18;;
34697;SDS011;61391;50.922;6.928;2023-06-22T10:50:57;5.57;;;4.28;;
34697;SDS011;61391;50.922;6.928;2023-06-22T10:53:22;5.05;;;3.97;;
34697;SDS011;61391;50.922;6.928;2023-06-22T10:55:48;5.57;;;4.10;;
34697;SDS011;61391;50.922;6.928;2023-06-22T10:58:14;5.90;;;4.72;;
34697;SDS011;61391;50.922;6.928;2023-06-22T11:00:41;9.25;;;4.88;;
34697;SDS011;61391;50.922;6.928;2023-06-22T11:03:10;5.50;;;4.40;;
34697;SDS011;61391;50.922;6.928;2023-06-22T11:05:36;6.20;;;5.03;;
34697;SDS011;61391;50.922;6.928;2023-06-22T11:08:02;5.25;;;4.75;;
34697;SDS011;61391;50.922;6.928;2023-06-22T11:10:28;5.55;;;5.00;;
34697;SDS011;61391;50.922;6.928;2023-06-22T11:12:54;5.82;;;5.18;;
34697;SDS011;61391;50.922;6.928;2023-06-22T11:15:22;6.90;;;4.97;;
34697;SDS011;61391;50.922;6.928;2023-06-22T11:17:51;6.70;;;5.13;;
34697;SDS011;61391;50.922;6.928;2023-06-22T11:20:20;6.32;;;5.18;;
34697;SDS011;61391;50.922;6.928;2023-06-22T11:22:47;6.80;;;5.15;;
34697;SDS011;61391;50.922;6.928;2023-06-22T11:25:13;5.30;;;4.80;;
34697;SDS011;61391;50.922;6.928;2023-06-22T11:27:38;6.13;;;5.32;;
34697;SDS011;61391;50.922;6.928;2023-06-22T11:30:06;7.07;;;5.25;;
34697;SDS011;61391;50.922;6.928;2023-06-22T11:32:35;5.13;;;4.65;;
34697;SDS011;61391;50.922;6.928;2023-06-22T11:35:01;7.40;;;4.80;;
34697;SDS011;61391;50.922;6.928;2023-06-22T11:37:27;5.45;;;4.90;;
34697;SDS011;61391;50.922;6.928;2023-06-22T11:39:52;6.60;;;4.88;;
34697;SDS011;61391;50.922;6.928;2023-06-22T11:42:21;5.60;;;4.50;;
34697;SDS011;61391;50.922;6.928;2023-06-22T11:44:48;5.47;;;4.88;;
34697;SDS011;61391;50.922;6.928;2023-06-22T11:47:15;6.40;;;5.32;;
34697;SDS011;61391;50.922;6.928;2023-06-22T11:49:41;5.30;;;4.65;;
34697;SDS011;61391;50.922;6.928;2023-06-22T11:52:07;6.05;;;5.15;;
34697;SDS011;61391;50.922;6.928;2023-06-22T11:54:33;6.57;;;4.65;;
34697;SDS011;61391;50.922;6.928;2023-06-22T11:56:58;5.60;;;4.80;;
34697;SDS011;61391;50.922;6.928;2023-06-22T11:59:24;7.35;;;5.07;;
34697;SDS011;61391;50.922;6.928;2023-06-22T12:01:50;6.03;;;4.68;;
34697;SDS011;61391;50.922;6.928;2023-06-22T12:04:18;5.95;;;5.10;;
34697;SDS011;61391;50.922;6.928;2023-06-22T12:06:46;5.15;;;4.63;;
34697;SDS011;61391;50.922;6.928;2023-06-22T12:09:13;6.25;;;4.95;;
34697;SDS011;61391;50.922;6.928;2023-06-22T12:11:40;4.40;;;3.80;;
34697;SDS011;61391;50.922;6.928;2023-06-22T12:14:06;4.43;;;4.00;;
34697;SDS011;61391;50.922;6.928;2023-06-22T12:16:32;5.55;;;4.47;;
34697;SDS011;61391;50.922;6.928;2023-06-22T12:18:59;5.53;;;4.47;;
34697;SDS011;61391;50.922;6.928;2023-06-22T12:21:27;4.88;;;4.38;;
34697;SDS011;61391;50.922;6.928;2023-06-22T12:23:54;5.13;;;4.50;;
34697;SDS011;61391;50.922;6.928;2023-06-22T12:26:25;6.38;;;4.72;;
34697;SDS011;61391;50.922;6.928;2023-06-22T12:29:02;5.47;;;4.90;;
34697;SDS011;61391;50.922;6.928;2023-06-22T12:31:28;5.97;;;4.80;;
34697;SDS011;61391;50.922;6.928;2023-06-22T12:33:57;6.45;;;5.13;;
34697;SDS011;61391;50.922;6.928;2023-06-22T12:36:23;5.75;;;5.22;;
34697;SDS011;61391;50.922;6.928;2023-06-22T12:38:52;5.75;;;4.72;;
34697;SDS011;61391;50.922;6.928;2023-06-22T12:41:29;5.75;;;4.70;;
34697;SDS011;61391;50.922;6.928;2023-06-22T12:43:56;7.43;;;4.97;;
34697;SDS011;61391;50.922;6.928;2023-06-22T12:46:25;4.60;;;4.20;;
34697;SDS011;61391;50.922;6.928;2023-06-22T12:48:55;5.38;;;4.88;;
34697;SDS011;61391;50.922;6.928;2023-06-22T12:51:22;5.18;;;4.32;;
34697;SDS011;61391;50.922;6.928;2023-06-22T12:53:50;7.63;;;4.70;;
34697;SDS011;61391;50.922;6.928;2023-06-22T12:56:19;4.32;;;3.92;;
34697;SDS011;61391;50.922;6.928;2023-06-22T12:58:48;5.00;;;3.80;;
34697;SDS011;61391;50.922;6.928;2023-06-22T13:01:14;5.10;;;3.83;;
34697;SDS011;61391;50.922;6.928;2023-06-22T13:03:41;5.47;;;4.90;;
34697;SDS011;61391;50.922;6.928;2023-06-22T13:06:08;5.38;;;4.60;;
34697;SDS011;61391;50.922;6.928;2023-06-22T13:08:34;4.82;;;4.15;;
34697;SDS011;61391;50.922;6.928;2023-06-22T13:11:00;5.45;;;4.18;;
34697;SDS011;61391;50.922;6.928;2023-06-22T13:13:26;4.13;;;3.58;;
34697;SDS011;61391;50.922;6.928;2023-06-22T13:15:52;5.45;;;3.83;;
34697;SDS011;61391;50.922;6.928;2023-06-22T13:18:19;6.65;;;4.88;;
34697;SDS011;61391;50.922;6.928;2023-06-22T13:20:46;5.20;;;4.68;;
34697;SDS011;61391;50.922;6.928;2023-06-22T13:23:12;7.45;;;4.82;;
34697;SDS011;61391;50.922;6.928;2023-06-22T13:25:37;4.30;;;3.90;;
34697;SDS011;61391;50.922;6.928;2023-06-22T13:28:04;4.20;;;3.70;;
34697;SDS011;61391;50.922;6.928;2023-06-22T13:30:40;5.10;;;4.28;;
34697;SDS011;61391;50.922;6.928;2023-06-22T13:33:11;4.50;;;4.10;;
34697;SDS011;61391;50.922;6.928;2023-06-22T13:35:37;4.85;;;3.40;;
34697;SDS011;61391;50.922;6.928;2023-06-22T13:38:05;4.93;;;4.07;;
34697;SDS011;61391;50.922;6.928;2023-06-22T13:40:32;4.72;;;3.80;;
34697;SDS011;61391;50.922;6.928;2023-06-22T13:42:58;4.72;;;3.53;;
34697;SDS011;61391;50.922;6.928;2023-06-22T13:45:29;6.10;;;3.95;;
34697;SDS011;61391;50.922;6.928;2023-06-22T13:47:55;3.97;;;3.40;;
34697;SDS011;61391;50.922;6.928;2023-06-22T13:50:24;5.13;;;3.70;;
34697;SDS011;61391;50.922;6.928;2023-06-22T13:52:50;3.40;;;3.08;;
34697;SDS011;61391;50.922;6.928;2023-06-22T13:55:22;3.35;;;2.75;;
34697;SDS011;61391;50.922;6.928;2023-06-22T13:57:48;2.92;;;2.55;;
34697;SDS011;61391;50.922;6.928;2023-06-22T14:00:17;2.83;;;2.53;;
34697;SDS011;61391;50.922;6.928;2023-06-22T14:02:43;2.72;;;2.42;;
34697;SDS011;61391;50.922;6.928;2023-06-22T14:05:09;3.40;;;2.78;;
34697;SDS011;61391;50.922;6.928;2023-06-22T14:10:24;2.50;;;2.30;;
34697;SDS011;61391;50.922;6.928;2023-06-22T14:12:49;2.58;;;2.20;;
34697;SDS011;61391;50.922;6.928;2023-06-22T14:15:15;2.15;;;1.80;;
34697;SDS011;61391;50.922;6.928;2023-06-22T14:17:41;2.50;;;2.30;;
34697;SDS011;61391;50.922;6.928;2023-06-22T14:20:07;2.63;;;1.77;;
34697;SDS011;61391;50.922;6.928;2023-06-22T14:22:33;2.17;;;1.70;;
34697;SDS011;61391;50.922;6.928;2023-06-22T14:25:00;2.10;;;1.90;;
34697;SDS011;61391;50.922;6.928;2023-06-22T14:27:27;2.40;;;1.83;;
34697;SDS011;61391;50.922;6.928;2023-06-22T14:29:53;2.97;;;2.20;;
34697;SDS011;61391;50.922;6.928;2023-06-22T14:32:18;2.97;;;1.95;;
34697;SDS011;61391;50.922;6.928;2023-06-22T14:34:44;2.85;;;2.40;;
34697;SDS011;61391;50.922;6.928;2023-06-22T14:37:10;2.30;;;2.10;;
34697;SDS011;61391;50.922;6.928;2023-06-22T14:39:37;4.10;;;2.95;;
34697;SDS011;61391;50.922;6.928;2023-06-22T14:42:04;3.58;;;2.53;;
34697;SDS011;61391;50.922;6.928;2023-06-22T14:44:30;3.83;;;2.50;;
34697;SDS011;61391;50.922;6.928;2023-06-22T14:46:56;2.47;;;2.05;;
34697;SDS011;61391;50.922;6.928;2023-06-22T14:49:22;3.50;;;2.50;;
34697;SDS011;61391;50.922;6.928;2023-06-22T14:51:48;2.55;;;2.20;;
34697;SDS011;61391;50.922;6.928;2023-06-22T14:54:14;2.92;;;2.50;;
34697;SDS011;61391;50.922;6.928;2023-06-22T14:56:40;2.85;;;2.45;;
34697;SDS011;61391;50.922;6.928;2023-06-22T14:59:05;3.05;;;2.78;;
34697;SDS011;61391;50.922;6.928;2023-06-22T15:01:31;2.67;;;2.28;;
34697;SDS011;61391;50.922;6.928;2023-06-22T15:03:57;3.30;;;2.70;;
34697;SDS011;61391;50.922;6.928;2023-06-22T15:06:23;3.20;;;2.85;;
34697;SDS011;61391;50.922;6.928;2023-06-22T15:08:56;2.83;;;2.60;;
34697;SDS011;61391;50.922;6.928;2023-06-22T15:11:23;3.58;;;3.05;;
34697;SDS011;61391;50.922;6.928;2023-06-22T15:13:58;2.88;;;2.58;;
34697;SDS011;61391;50.922;6.928;2023-06-22T15:16:25;3.33;;;2.83;;
34697;SDS011;61391;50.922;6.928;2023-06-22T15:18:51;4.07;;;2.83;;
34697;SDS011;61391;50.922;6.928;2023-06-22T15:21:17;4.45;;;3.55;;
34697;SDS011;61391;50.922;6.928;2023-06-22T15:23:42;4.40;;;3.22;;
34697;SDS011;61391;50.922;6.928;2023-06-22T15:26:11;3.10;;;2.38;;
34697;SDS011;61391;50.922;6.928;2023-06-22T15:28:36;4.15;;;3.15;;
34697;SDS011;61391;50.922;6.928;2023-06-22T15:31:03;3.53;;;3.22;;
34697;SDS011;61391;50.922;6.928;2023-06-22T15:33:29;3.35;;;2.85;;
34697;SDS011;61391;50.922;6.928;2023-06-22T15:35:57;4.55;;;3.50;;
34697;SDS011;61391;50.922;6.928;2023-06-22T15:38:23;4.25;;;3.30;;
34697;SDS011;61391;50.922;6.928;2023-06-22T15:40:53;4.55;;;2.60;;